sensor_id;sensor_type;location;lat;lon;timestamp;pressure;altitude;pressure_sealevel;temperature;humidity
26192;BME280;13935;55.672;37.764;2023-12-04T00:00:14;98832.38;;;-3.71;100.00
26192;BME280;13935;55.672;37.764;2023-12-04T00:01:17;98844.97;;;-3.84;100.00
26192;BME280;13935;55.672;37.764;2023-12-04T00:02:19;98830.66;;;-3.76;100.00
26192;BME280;13935;55.672;37.764;2023-12-04T00:03:22;98837.66;;;-3.66;100.00
26192;BME280;13935;55.672;37.764;2023-12-04T00:04:24;98843.19;;;-3.71;100.00
26192;BME280;13935;55.672;37.764;2023-12-04T00:05:26;98846.38;;;-3.69;100.00
26192;BME280;13935;55.672;37.764;2023-12-04T00:06:28;98850.81;;;-3.65;100.00
26192;BME280;13935;55.672;37.764;2023-12-04T00:07:31;98846.50;;;-3.49;100.00
26192;BME280;13935;55.672;37.764;2023-12-04T00:08:33;98844.00;;;-3.71;100.00
26192;BME280;13935;55.672;37.764;2023-12-04T00:09:36;98845.28;;;-3.77;100.00
26192;BME280;13935;55.672;37.764;2023-12-04T00:10:38;98846.38;;;-3.78;100.00
26192;BME280;13935;55.672;37.764;2023-12-04T00:11:40;98846.84;;;-3.59;100.00
26192;BME280;13935;55.672;37.764;2023-12-04T00:12:42;98857.97;;;-3.52;100.00
26192;BME280;13935;55.672;37.764;2023-12-04T00:13:44;98859.38;;;-3.46;100.00
26192;BME280;13935;55.672;37.764;2023-12-04T00:14:47;98855.41;;;-3.65;100.00
26192;BME280;13935;55.672;37.764;2023-12-04T00:15:49;98863.53;;;-3.82;100.00
26192;BME280;13935;55.672;37.764;2023-12-04T00:16:53;98863.22;;;-3.64;100.00
26192;BME280;13935;55.672;37.764;2023-12-04T00:17:55;98861.81;;;-3.70;100.00
26192;BME280;13935;55.672;37.764;2023-12-04T00:18:58;98869.75;;;-3.73;100.00
26192;BME280;13935;55.672;37.764;2023-12-04T00:20:00;98863.53;;;-3.57;100.00
26192;BME280;13935;55.672;37.764;2023-12-04T00:21:02;98862.75;;;-3.83;100.00
26192;BME280;13935;55.672;37.764;2023-12-04T00:22:07;98874.81;;;-3.72;100.00
26192;BME280;13935;55.672;37.764;2023-12-04T00:23:10;98866.56;;;-3.67;100.00
26192;BME280;13935;55.672;37.764;2023-12-04T00:24:12;98872.63;;;-3.78;100.00
26192;BME280;13935;55.672;37.764;2023-12-04T00:25:14;98872.09;;;-3.55;100.00
26192;BME280;13935;55.672;37.764;2023-12-04T00:26:17;98872.28;;;-3.77;100.00
26192;BME280;13935;55.672;37.764;2023-12-04T00:27:19;98877.38;;;-3.84;100.00
26192;BME280;13935;55.672;37.764;2023-12-04T00:28:23;98873.88;;;-3.67;100.00
26192;BME280;13935;55.672;37.764;2023-12-04T00:29:25;98876.72;;;-3.81;100.00
26192;BME280;13935;55.672;37.764;2023-12-04T00:30:27;98874.34;;;-3.91;100.00
26192;BME280;13935;55.672;37.764;2023-12-04T00:31:29;98884.03;;;-3.90;100.00
26192;BME280;13935;55.672;37.764;2023-12-04T00:32:33;98885.31;;;-3.96;100.00
26192;BME280;13935;55.672;37.764;2023-12-04T00:33:37;98883.72;;;-3.80;100.00
26192;BME280;13935;55.672;37.764;2023-12-04T00:34:39;98886.25;;;-3.92;100.00
26192;BME280;13935;55.672;37.764;2023-12-04T00:35:42;98890.38;;;-3.86;100.00
26192;BME280;13935;55.672;37.764;2023-12-04T00:36:44;98889.44;;;-4.07;100.00
26192;BME280;13935;55.672;37.764;2023-12-04T00:37:46;98884.31;;;-4.00;100.00
26192;BME280;13935;55.672;37.764;2023-12-04T00:38:52;98889.72;;;-4.00;100.00
26192;BME280;13935;55.672;37.764;2023-12-04T00:39:55;98890.03;;;-4.10;100.00
26192;BME280;13935;55.672;37.764;2023-12-04T00:40:59;98895.75;;;-4.20;100.00
26192;BME280;13935;55.672;37.764;2023-12-04T00:42:04;98892.44;;;-4.00;100.00
26192;BME280;13935;55.672;37.764;2023-12-04T00:43:06;98891.31;;;-3.99;100.00
26192;BME280;13935;55.672;37.764;2023-12-04T00:44:08;98894.66;;;-4.02;100.00
26192;BME280;13935;55.672;37.764;2023-12-04T00:45:12;98894.50;;;-3.97;100.00
26192;BME280;13935;55.672;37.764;2023-12-04T00:46:14;98891.28;;;-4.32;100.00
26192;BME280;13935;55.672;37.764;2023-12-04T00:47:17;98897.97;;;-4.22;100.00
26192;BME280;13935;55.672;37.764;2023-12-04T00:48:19;98894.94;;;-4.12;100.00
26192;BME280;13935;55.672;37.764;2023-12-04T00:49:21;98893.84;;;-4.27;100.00
26192;BME280;13935;55.672;37.764;2023-12-04T00:50:26;98904.47;;;-4.23;100.00
26192;BME280;13935;55.672;37.764;2023-12-04T00:51:38;98903.97;;;-4.25;100.00
26192;BME280;13935;55.672;37.764;2023-12-04T00:52:40;98894.00;;;-4.24;100.00
26192;BME280;13935;55.672;37.764;2023-12-04T00:53:43;98893.50;;;-4.34;100.00
26192;BME280;13935;55.672;37.764;2023-12-04T00:54:45;98903.53;;;-4.26;100.00
26192;BME280;13935;55.672;37.764;2023-12-04T00:55:47;98902.22;;;-4.37;100.00
26192;BME280;13935;55.672;37.764;2023-12-04T00:56:50;98901.41;;;-4.46;100.00
26192;BME280;13935;55.672;37.764;2023-12-04T00:57:52;98908.38;;;-4.45;100.00
26192;BME280;13935;55.672;37.764;2023-12-04T00:58:54;98914.75;;;-4.41;100.00
26192;BME280;13935;55.672;37.764;2023-12-04T00:59:56;98915.75;;;-4.21;100.00
26192;BME280;13935;55.672;37.764;2023-12-04T01:00:59;98912.56;;;-4.23;100.00
26192;BME280;13935;55.672;37.764;2023-12-04T01:02:01;98914.00;;;-4.25;100.00
26192;BME280;13935;55.672;37.764;2023-12-04T01:03:04;98905.88;;;-4.33;100.00
26192;BME280;13935;55.672;37.764;2023-12-04T01:04:06;98909.84;;;-4.31;100.00
26192;BME280;13935;55.672;37.764;2023-12-04T01:05:08;98920.03;;;-4.28;100.00
26192;BME280;13935;55.672;37.764;2023-12-04T01:06:20;98916.03;;;-4.30;100.00
26192;BME280;13935;55.672;37.764;2023-12-04T01:07:23;98913.81;;;-4.28;100.00
26192;BME280;13935;55.672;37.764;2023-12-04T01:08:26;98910.63;;;-4.30;100.00
26192;BME280;13935;55.672;37.764;2023-12-04T01:09:28;98922.69;;;-4.36;100.00
26192;BME280;13935;55.672;37.764;2023-12-04T01:10:31;98916.53;;;-4.28;100.00
26192;BME280;13935;55.672;37.764;2023-12-04T01:11:33;98929.09;;;-4.16;100.00
26192;BME280;13935;55.672;37.764;2023-12-04T01:12:36;98922.75;;;-4.20;100.00
26192;BME280;13935;55.672;37.764;2023-12-04T01:13:38;98929.41;;;-4.25;100.00
26192;BME280;13935;55.672;37.764;2023-12-04T01:14:40;98933.72;;;-4.08;100.00
26192;BME280;13935;55.672;37.764;2023-12-04T01:15:43;98929.41;;;-4.25;100.00
26192;BME280;13935;55.672;37.764;2023-12-04T01:16:48;98926.88;;;-4.14;100.00
26192;BME280;13935;55.672;37.764;2023-12-04T01:17:50;98931.78;;;-4.16;100.00
26192;BME280;13935;55.672;37.764;2023-12-04T01:18:53;98935.75;;;-4.22;100.00
26192;BME280;13935;55.672;37.764;2023-12-04T01:19:57;98926.72;;;-4.09;100.00
26192;BME280;13935;55.672;37.764;2023-12-04T01:20:59;98933.88;;;-4.13;100.00
26192;BME280;13935;55.672;37.764;2023-12-04T01:22:05;98942.59;;;-4.16;100.00
26192;BME280;13935;55.672;37.764;2023-12-04T01:23:08;98938.78;;;-4.15;100.00
26192;BME280;13935;55.672;37.764;2023-12-04T01:24:10;98936.09;;;-4.15;100.00
26192;BME280;13935;55.672;37.764;2023-12-04T01:25:12;98944.66;;;-4.13;100.00
26192;BME280;13935;55.672;37.764;2023-12-04T01:26:17;98938.66;;;-3.93;100.00
26192;BME280;13935;55.672;37.764;2023-12-04T01:27:20;98936.09;;;-3.98;100.00
26192;BME280;13935;55.672;37.764;2023-12-04T01:28:23;98935.16;;;-4.02;100.00
26192;BME280;13935;55.672;37.764;2023-12-04T01:29:29;98944.03;;;-3.93;100.00
26192;BME280;13935;55.672;37.764;2023-12-04T01:30:31;98944.81;;;-4.09;100.00
26192;BME280;13935;55.672;37.764;2023-12-04T01:31:35;98945.94;;;-4.02;100.00
26192;BME280;13935;55.672;37.764;2023-12-04T01:32:37;98941.16;;;-4.05;100.00
26192;BME280;13935;55.672;37.764;2023-12-04T01:33:41;98947.53;;;-4.01;100.00
26192;BME280;13935;55.672;37.764;2023-12-04T01:34:43;98944.44;;;-4.25;100.00
26192;BME280;13935;55.672;37.764;2023-12-04T01:35:46;98951.16;;;-4.22;100.00
26192;BME280;13935;55.672;37.764;2023-12-04T01:36:48;98942.09;;;-4.18;100.00
26192;BME280;13935;55.672;37.764;2023-12-04T01:37:50;98944.66;;;-4.13;100.00
26192;BME280;13935;55.672;37.764;2023-12-04T01:38:52;98940.53;;;-4.19;100.00
26192;BME280;13935;55.672;37.764;2023-12-04T01:39:56;98946.03;;;-4.24;100.00
26192;BME280;13935;55.672;37.764;2023-12-04T01:40:59;98949.41;;;-4.10;100.00
26192;BME280;13935;55.672;37.764;2023-12-04T01:42:02;98945.78;;;-3.97;100.00
26192;BME280;13935;55.672;37.764;2023-12-04T01:43:05;98941.22;;;-3.88;100.00
26192;BME280;13935;55.672;37.764;2023-12-04T01:44:07;98944.03;;;-3.93;100.00
26192;BME280;13935;55.672;37.764;2023-12-04T01:45:09;98944.19;;;-4.06;100.00
26192;BME280;13935;55.672;37.764;2023-12-04T01:46:13;98947.22;;;-3.99;100.00
26192;BME280;13935;55.672;37.764;2023-12-04T01:47:18;98944.53;;;-3.99;100.00
26192;BME280;13935;55.672;37.764;2023-12-04T01:48:22;98943.53;;;-4.20;100.00
26192;BME280;13935;55.672;37.764;2023-12-04T01:49:26;98937.19;;;-4.07;100.00
26192;BME280;13935;55.672;37.764;2023-12-04T01:50:29;98944.19;;;-4.06;100.00
26192;BME280;13935;55.672;37.764;2023-12-04T01:51:32;98936.88;;;-4.14;100.00
26192;BME280;13935;55.672;37.764;2023-12-04T01:52:36;98945.28;;;-4.16;100.00
26192;BME280;13935;55.672;37.764;2023-12-04T01:53:39;98949.09;;;-4.17;100.00
26192;BME280;13935;55.672;37.764;2023-12-04T01:54:43;98936.88;;;-4.14;100.00
26192;BME280;13935;55.672;37.764;2023-12-04T01:55:46;98936.88;;;-4.14;100.00
26192;BME280;13935;55.672;37.764;2023-12-04T01:56:49;98942.75;;;-4.12;100.00
26192;BME280;13935;55.672;37.764;2023-12-04T01:57:53;98938.59;;;-4.26;100.00
26192;BME280;13935;55.672;37.764;2023-12-04T01:58:58;98934.91;;;-4.30;100.00
26192;BME280;13935;55.672;37.764;2023-12-04T02:00:02;98942.06;;;-4.26;100.00
26192;BME280;13935;55.672;37.764;2023-12-04T02:01:13;98940.97;;;-4.25;100.00
26192;BME280;13935;55.672;37.764;2023-12-04T02:02:15;98942.56;;;-4.24;100.00
26192;BME280;13935;55.672;37.764;2023-12-04T02:03:18;98937.94;;;-4.24;100.00
26192;BME280;13935;55.672;37.764;2023-12-04T02:04:21;98947.78;;;-4.27;100.00
26192;BME280;13935;55.672;37.764;2023-12-04T02:05:24;98945.22;;;-4.41;100.00
26192;BME280;13935;55.672;37.764;2023-12-04T02:06:28;98943.94;;;-4.43;100.00
26192;BME280;13935;55.672;37.764;2023-12-04T02:07:32;98947.91;;;-4.41;100.00
26192;BME280;13935;55.672;37.764;2023-12-04T02:08:35;98950.63;;;-4.41;100.00
26192;BME280;13935;55.672;37.764;2023-12-04T02:09:39;98947.59;;;-4.39;100.00
26192;BME280;13935;55.672;37.764;2023-12-04T02:10:41;98960.38;;;-4.53;100.00
26192;BME280;13935;55.672;37.764;2023-12-04T02:11:45;98950.13;;;-4.43;100.00
26192;BME280;13935;55.672;37.764;2023-12-04T02:12:48;98949.47;;;-4.40;100.00
26192;BME280;13935;55.672;37.764;2023-12-04T02:13:55;98958.88;;;-4.37;100.00
26192;BME280;13935;55.672;37.764;2023-12-04T02:14:57;98963.28;;;-4.41;100.00
26192;BME280;13935;55.672;37.764;2023-12-04T02:16:04;98972.78;;;-4.52;100.00
26192;BME280;13935;55.672;37.764;2023-12-04T02:17:10;98968.91;;;-4.68;100.00
26192;BME280;13935;55.672;37.764;2023-12-04T02:18:13;98968.66;;;-4.50;100.00
26192;BME280;13935;55.672;37.764;2023-12-04T02:19:16;98973.09;;;-4.54;100.00
26192;BME280;13935;55.672;37.764;2023-12-04T02:20:30;98974.50;;;-4.56;100.00
26192;BME280;13935;55.672;37.764;2023-12-04T02:21:33;98979.56;;;-4.63;100.00
26192;BME280;13935;55.672;37.764;2023-12-04T02:22:37;98975.44;;;-4.61;100.00
26192;BME280;13935;55.672;37.764;2023-12-04T02:23:39;98978.50;;;-4.54;100.00
26192;BME280;13935;55.672;37.764;2023-12-04T02:24:41;98983.38;;;-4.56;100.00
26192;BME280;13935;55.672;37.764;2023-12-04T02:25:43;98984.06;;;-4.50;100.00
26192;BME280;13935;55.672;37.764;2023-12-04T02:26:52;98985.84;;;-4.37;100.00
26192;BME280;13935;55.672;37.764;2023-12-04T02:27:59;98987.53;;;-4.50;100.00
26192;BME280;13935;55.672;37.764;2023-12-04T02:29:07;98980.28;;;-4.71;100.00
26192;BME280;13935;55.672;37.764;2023-12-04T02:30:14;98980.28;;;-4.71;100.00
26192;BME280;13935;55.672;37.764;2023-12-04T02:31:19;98981.47;;;-4.55;100.00
26192;BME280;13935;55.672;37.764;2023-12-04T02:32:24;98978.56;;;-4.67;100.00
26192;BME280;13935;55.672;37.764;2023-12-04T02:33:30;98987.66;;;-4.63;100.00
26192;BME280;13935;55.672;37.764;2023-12-04T02:34:35;98977.81;;;-4.59;100.00
26192;BME280;13935;55.672;37.764;2023-12-04T02:35:41;98981.97;;;-4.53;100.00
26192;BME280;13935;55.672;37.764;2023-12-04T02:36:44;98984.94;;;-4.63;100.00
26192;BME280;13935;55.672;37.764;2023-12-04T02:37:48;98983.91;;;-4.76;100.00
26192;BME280;13935;55.672;37.764;2023-12-04T02:38:52;98979.34;;;-4.75;100.00
26192;BME280;13935;55.672;37.764;2023-12-04T02:39:56;98982.84;;;-4.66;100.00
26192;BME280;13935;55.672;37.764;2023-12-04T02:40:58;98991.44;;;-4.64;100.00
26192;BME280;13935;55.672;37.764;2023-12-04T02:42:01;98987.09;;;-4.74;100.00
26192;BME280;13935;55.672;37.764;2023-12-04T02:43:03;98977.03;;;-4.90;100.00
26192;BME280;13935;55.672;37.764;2023-12-04T02:44:06;98987.19;;;-4.87;100.00
26192;BME280;13935;55.672;37.764;2023-12-04T02:45:08;98987.44;;;-4.75;100.00
26192;BME280;13935;55.672;37.764;2023-12-04T02:46:11;98982.53;;;-4.95;100.00
26192;BME280;13935;55.672;37.764;2023-12-04T02:47:13;98983.91;;;-4.76;100.00
26192;BME280;13935;55.672;37.764;2023-12-04T02:48:17;98991.56;;;-4.69;100.00
26192;BME280;13935;55.672;37.764;2023-12-04T02:49:19;98993.72;;;-4.80;100.00
26192;BME280;13935;55.672;37.764;2023-12-04T02:50:21;98983.38;;;-4.86;100.00
26192;BME280;13935;55.672;37.764;2023-12-04T02:51:23;98992.31;;;-4.77;100.00
26192;BME280;13935;55.672;37.764;2023-12-04T02:52:28;98989.94;;;-4.79;100.00
26192;BME280;13935;55.672;37.764;2023-12-04T02:53:31;99002.88;;;-4.89;100.00
26192;BME280;13935;55.672;37.764;2023-12-04T02:54:33;99002.59;;;-4.79;100.00
26192;BME280;13935;55.672;37.764;2023-12-04T02:55:37;98997.84;;;-4.82;100.00
26192;BME280;13935;55.672;37.764;2023-12-04T02:56:39;99002.75;;;-4.84;100.00
26192;BME280;13935;55.672;37.764;2023-12-04T02:57:42;99001.91;;;-4.63;100.00
26192;BME280;13935;55.672;37.764;2023-12-04T02:58:44;99007.03;;;-4.83;100.00
26192;BME280;13935;55.672;37.764;2023-12-04T02:59:48;99013.38;;;-4.79;100.00
26192;BME280;13935;55.672;37.764;2023-12-04T03:00:51;99011.22;;;-4.69;100.00
26192;BME280;13935;55.672;37.764;2023-12-04T03:01:53;99014.44;;;-4.67;100.00
26192;BME280;13935;55.672;37.764;2023-12-04T03:02:55;99016.44;;;-4.72;100.00
26192;BME280;13935;55.672;37.764;2023-12-04T03:03:58;99015.22;;;-4.66;100.00
26192;BME280;13935;55.672;37.764;2023-12-04T03:05:01;99014.97;;;-4.78;100.00
26192;BME280;13935;55.672;37.764;2023-12-04T03:06:04;99023.78;;;-4.64;100.00
26192;BME280;13935;55.672;37.764;2023-12-04T03:07:06;99026.63;;;-4.69;100.00
26192;BME280;13935;55.672;37.764;2023-12-04T03:08:10;99030.44;;;-4.70;100.00
26192;BME280;13935;55.672;37.764;2023-12-04T03:09:12;99028.31;;;-4.73;100.00
26192;BME280;13935;55.672;37.764;2023-12-04T03:10:14;99030.66;;;-4.80;100.00
26192;BME280;13935;55.672;37.764;2023-12-04T03:11:16;99040.75;;;-4.64;100.00
26192;BME280;13935;55.672;37.764;2023-12-04T03:12:19;99038.28;;;-4.82;100.00
26192;BME280;13935;55.672;37.764;2023-12-04T03:13:21;99043.41;;;-4.72;100.00
26192;BME280;13935;55.672;37.764;2023-12-04T03:14:23;99047.47;;;-4.83;100.00
26192;BME280;13935;55.672;37.764;2023-12-04T03:15:26;99050.16;;;-4.83;100.00
26192;BME280;13935;55.672;37.764;2023-12-04T03:16:31;99045.56;;;-4.83;100.00
26192;BME280;13935;55.672;37.764;2023-12-04T03:17:36;99054.94;;;-4.80;100.00
26192;BME280;13935;55.672;37.764;2023-12-04T03:18:38;99061.31;;;-4.76;100.00
26192;BME280;13935;55.672;37.764;2023-12-04T03:19:42;99070.63;;;-4.82;100.00
26192;BME280;13935;55.672;37.764;2023-12-04T03:20:45;99073.78;;;-4.80;100.00
26192;BME280;13935;55.672;37.764;2023-12-04T03:21:48;99070.19;;;-4.76;100.00
26192;BME280;13935;55.672;37.764;2023-12-04T03:22:51;99066.06;;;-4.73;100.00
26192;BME280;13935;55.672;37.764;2023-12-04T03:23:54;99070.00;;;-4.79;100.00
26192;BME280;13935;55.672;37.764;2023-12-04T03:24:56;99086.53;;;-4.72;100.00
26192;BME280;13935;55.672;37.764;2023-12-04T03:25:59;99084.72;;;-4.63;100.00
26192;BME280;13935;55.672;37.764;2023-12-04T03:27:01;99086.72;;;-4.69;100.00
26192;BME280;13935;55.672;37.764;2023-12-04T03:28:04;99077.34;;;-4.71;100.00
26192;BME280;13935;55.672;37.764;2023-12-04T03:29:07;99081.41;;;-4.82;100.00
26192;BME280;13935;55.672;37.764;2023-12-04T03:30:09;99091.34;;;-4.69;100.00
26192;BME280;13935;55.672;37.764;2023-12-04T03:31:12;99092.22;;;-4.52;100.00
26192;BME280;13935;55.672;37.764;2023-12-04T03:32:14;99092.19;;;-4.60;100.00
26192;BME280;13935;55.672;37.764;2023-12-04T03:33:16;99095.50;;;-4.85;100.00
26192;BME280;13935;55.672;37.764;2023-12-04T03:34:19;99089.50;;;-4.82;100.00
26192;BME280;13935;55.672;37.764;2023-12-04T03:35:21;99094.66;;;-4.94;100.00
26192;BME280;13935;55.672;37.764;2023-12-04T03:36:23;99095.13;;;-4.70;100.00
26192;BME280;13935;55.672;37.764;2023-12-04T03:37:26;99110.94;;;-4.77;100.00
26192;BME280;13935;55.672;37.764;2023-12-04T03:38:28;99110.44;;;-4.57;100.00
26192;BME280;13935;55.672;37.764;2023-12-04T03:39:31;99113.81;;;-4.52;100.00
26192;BME280;13935;55.672;37.764;2023-12-04T03:40:33;99117.31;;;-4.51;100.00
26192;BME280;13935;55.672;37.764;2023-12-04T03:41:35;99121.41;;;-4.54;100.00
26192;BME280;13935;55.672;37.764;2023-12-04T03:42:38;99124.78;;;-4.48;100.00
26192;BME280;13935;55.672;37.764;2023-12-04T03:43:40;99121.34;;;-4.40;100.00
26192;BME280;13935;55.672;37.764;2023-12-04T03:44:42;99126.75;;;-4.40;100.00
26192;BME280;13935;55.672;37.764;2023-12-04T03:45:44;99131.88;;;-4.30;100.00
26192;BME280;13935;55.672;37.764;2023-12-04T03:46:48;99130.47;;;-4.50;100.00
26192;BME280;13935;55.672;37.764;2023-12-04T03:47:51;99137.84;;;-4.42;100.00
26192;BME280;13935;55.672;37.764;2023-12-04T03:48:53;99138.06;;;-4.52;100.00
26192;BME280;13935;55.672;37.764;2023-12-04T03:49:56;99137.06;;;-4.64;100.00
26192;BME280;13935;55.672;37.764;2023-12-04T03:50:58;99134.59;;;-4.52;100.00
26192;BME280;13935;55.672;37.764;2023-12-04T03:52:01;99146.31;;;-4.35;100.00
26192;BME280;13935;55.672;37.764;2023-12-04T03:53:04;99151.75;;;-4.26;100.00
26192;BME280;13935;55.672;37.764;2023-12-04T03:54:07;99152.56;;;-4.18;100.00
26192;BME280;13935;55.672;37.764;2023-12-04T03:55:09;99146.50;;;-4.31;100.00
26192;BME280;13935;55.672;37.764;2023-12-04T03:56:16;99155.53;;;-4.49;100.00
26192;BME280;13935;55.672;37.764;2023-12-04T03:57:18;99157.00;;;-4.22;100.00
26192;BME280;13935;55.672;37.764;2023-12-04T03:58:20;99157.31;;;-4.23;100.00
26192;BME280;13935;55.672;37.764;2023-12-04T03:59:23;99160.22;;;-4.20;100.00
26192;BME280;13935;55.672;37.764;2023-12-04T04:00:25;99161.13;;;-4.24;100.00
26192;BME280;13935;55.672;37.764;2023-12-04T04:01:30;99168.06;;;-4.31;100.00
26192;BME280;13935;55.672;37.764;2023-12-04T04:02:32;99173.03;;;-4.47;100.00
26192;BME280;13935;55.672;37.764;2023-12-04T04:03:35;99166.69;;;-4.42;100.00
26192;BME280;13935;55.672;37.764;2023-12-04T04:04:37;99177.25;;;-4.32;100.00
26192;BME280;13935;55.672;37.764;2023-12-04T04:05:39;99173.56;;;-4.36;100.00
26192;BME280;13935;55.672;37.764;2023-12-04T04:06:41;99171.31;;;-4.43;100.00
26192;BME280;13935;55.672;37.764;2023-12-04T04:07:43;99185.50;;;-4.37;100.00
26192;BME280;13935;55.672;37.764;2023-12-04T04:08:46;99177.25;;;-4.32;100.00
26192;BME280;13935;55.672;37.764;2023-12-04T04:09:49;99181.06;;;-4.33;100.00
26192;BME280;13935;55.672;37.764;2023-12-04T04:10:51;99201.28;;;-4.23;100.00
26192;BME280;13935;55.672;37.764;2023-12-04T04:11:54;99193.31;;;-4.49;100.00
26192;BME280;13935;55.672;37.764;2023-12-04T04:12:56;99196.00;;;-4.49;100.00
26192;BME280;13935;55.672;37.764;2023-12-04T04:13:58;99190.44;;;-4.53;100.00
26192;BME280;13935;55.672;37.764;2023-12-04T04:15:02;99191.34;;;-4.57;100.00
26192;BME280;13935;55.672;37.764;2023-12-04T04:16:06;99195.03;;;-4.89;100.00
26192;BME280;13935;55.672;37.764;2023-12-04T04:17:09;99203.44;;;-4.90;100.00
26192;BME280;13935;55.672;37.764;2023-12-04T04:18:14;99202.72;;;-4.82;100.00
26192;BME280;13935;55.672;37.764;2023-12-04T04:19:16;99208.22;;;-4.87;100.00
26192;BME280;13935;55.672;37.764;2023-12-04T04:20:22;99202.84;;;-4.87;100.00
26192;BME280;13935;55.672;37.764;2023-12-04T04:21:25;99199.25;;;-4.96;100.00
26192;BME280;13935;55.672;37.764;2023-12-04T04:22:27;99214.72;;;-4.88;100.00
26192;BME280;13935;55.672;37.764;2023-12-04T04:23:29;99215.56;;;-4.79;100.00
26192;BME280;13935;55.672;37.764;2023-12-04T04:24:31;99218.97;;;-4.74;100.00
26192;BME280;13935;55.672;37.764;2023-12-04T04:25:33;99216.09;;;-4.77;100.00
26192;BME280;13935;55.672;37.764;2023-12-04T04:26:35;99209.97;;;-4.69;100.00
26192;BME280;13935;55.672;37.764;2023-12-04T04:27:37;99216.34;;;-4.65;100.00
26192;BME280;13935;55.672;37.764;2023-12-04T04:28:40;99213.06;;;-4.62;100.00
26192;BME280;13935;55.672;37.764;2023-12-04T04:29:42;99220.13;;;-4.66;100.00
26192;BME280;13935;55.672;37.764;2023-12-04T04:30:44;99227.75;;;-4.68;100.00
26192;BME280;13935;55.672;37.764;2023-12-04T04:31:46;99227.00;;;-4.60;100.00
26192;BME280;13935;55.672;37.764;2023-12-04T04:32:49;99221.69;;;-4.52;100.00
26192;BME280;13935;55.672;37.764;2023-12-04T04:33:51;99220.91;;;-4.52;100.00
26192;BME280;13935;55.672;37.764;2023-12-04T04:34:53;99231.75;;;-4.66;100.00
26192;BME280;13935;55.672;37.764;2023-12-04T04:35:55;99224.56;;;-4.70;100.00
26192;BME280;13935;55.672;37.764;2023-12-04T04:36:57;99228.94;;;-4.74;100.00
26192;BME280;13935;55.672;37.764;2023-12-04T04:38:00;99227.84;;;-4.73;100.00
26192;BME280;13935;55.672;37.764;2023-12-04T04:39:02;99232.75;;;-4.75;100.00
26192;BME280;13935;55.672;37.764;2023-12-04T04:40:05;99229.94;;;-4.70;100.00
26192;BME280;13935;55.672;37.764;2023-12-04T04:41:13;99238.66;;;-4.87;100.00
26192;BME280;13935;55.672;37.764;2023-12-04T04:42:16;99225.47;;;-4.75;100.00
26192;BME280;13935;55.672;37.764;2023-12-04T04:43:19;99231.03;;;-4.71;100.00
26192;BME280;13935;55.672;37.764;2023-12-04T04:44:21;99229.50;;;-4.50;100.00
26192;BME280;13935;55.672;37.764;2023-12-04T04:45:27;99235.94;;;-4.73;100.00
26192;BME280;13935;55.672;37.764;2023-12-04T04:46:29;99226.78;;;-4.50;100.00
26192;BME280;13935;55.672;37.764;2023-12-04T04:47:32;99227.00;;;-4.60;100.00
26192;BME280;13935;55.672;37.764;2023-12-04T04:48:35;99232.09;;;-4.59;100.00
26192;BME280;13935;55.672;37.764;2023-12-04T04:49:45;99236.69;;;-4.59;100.00
26192;BME280;13935;55.672;37.764;2023-12-04T04:50:47;99228.88;;;-4.47;100.00
26192;BME280;13935;55.672;37.764;2023-12-04T04:51:49;99232.41;;;-4.60;100.00
26192;BME280;13935;55.672;37.764;2023-12-04T04:52:51;99226.69;;;-4.59;100.00
26192;BME280;13935;55.672;37.764;2023-12-04T04:53:54;99236.00;;;-4.51;100.00
26192;BME280;13935;55.672;37.764;2023-12-04T04:54:57;99241.31;;;-4.60;100.00
26192;BME280;13935;55.672;37.764;2023-12-04T04:56:00;99237.13;;;-4.66;100.00
26192;BME280;13935;55.672;37.764;2023-12-04T04:57:03;99234.31;;;-4.61;100.00
26192;BME280;13935;55.672;37.764;2023-12-04T04:58:05;99247.09;;;-4.66;100.00
26192;BME280;13935;55.672;37.764;2023-12-04T04:59:07;99245.75;;;-4.55;100.00
26192;BME280;13935;55.672;37.764;2023-12-04T05:00:11;99238.75;;;-4.78;100.00
26192;BME280;13935;55.672;37.764;2023-12-04T05:01:14;99241.56;;;-4.83;100.00
26192;BME280;13935;55.672;37.764;2023-12-04T05:02:17;99249.13;;;-4.85;100.00
26192;BME280;13935;55.672;37.764;2023-12-04T05:03:19;99254.91;;;-4.78;100.00
26192;BME280;13935;55.672;37.764;2023-12-04T05:04:23;99249.72;;;-4.75;100.00
26192;BME280;13935;55.672;37.764;2023-12-04T05:05:26;99244.63;;;-4.76;100.00
26192;BME280;13935;55.672;37.764;2023-12-04T05:06:28;99254.72;;;-4.68;100.00
26192;BME280;13935;55.672;37.764;2023-12-04T05:07:31;99258.00;;;-4.71;100.00
26192;BME280;13935;55.672;37.764;2023-12-04T05:08:33;99259.69;;;-4.62;100.00
26192;BME280;13935;55.672;37.764;2023-12-04T05:09:38;99258.16;;;-4.54;100.00
26192;BME280;13935;55.672;37.764;2023-12-04T05:10:40;99262.44;;;-4.53;100.00
26192;BME280;13935;55.672;37.764;2023-12-04T05:11:42;99264.66;;;-4.55;100.00
26192;BME280;13935;55.672;37.764;2023-12-04T05:12:45;99259.53;;;-4.43;100.00
26192;BME280;13935;55.672;37.764;2023-12-04T05:13:47;99254.53;;;-4.85;100.00
26192;BME280;13935;55.672;37.764;2023-12-04T05:14:50;99265.69;;;-4.78;100.00
26192;BME280;13935;55.672;37.764;2023-12-04T05:15:52;99269.22;;;-4.78;100.00
26192;BME280;13935;55.672;37.764;2023-12-04T05:16:55;99272.00;;;-4.69;100.00
26192;BME280;13935;55.672;37.764;2023-12-04T05:17:57;99274.69;;;-4.69;100.00
26192;BME280;13935;55.672;37.764;2023-12-04T05:19:00;99265.91;;;-4.75;100.00
26192;BME280;13935;55.672;37.764;2023-12-04T05:20:02;99268.91;;;-4.76;100.00
26192;BME280;13935;55.672;37.764;2023-12-04T05:21:09;99271.09;;;-4.78;100.00
26192;BME280;13935;55.672;37.764;2023-12-04T05:22:11;99270.97;;;-4.73;100.00
26192;BME280;13935;55.672;37.764;2023-12-04T05:23:14;99271.31;;;-4.88;100.00
26192;BME280;13935;55.672;37.764;2023-12-04T05:24:17;99283.09;;;-4.84;100.00
26192;BME280;13935;55.672;37.764;2023-12-04T05:25:19;99270.13;;;-4.82;100.00